sensor_id;sensor_type;location;lat;lon;timestamp;P1;durP1;ratioP1;P2;durP2;ratioP2
24873;SDS011;12945;42.648;23.370;2024-01-15T00:00:26;55.38;;;23.55;;
24873;SDS011;12945;42.648;23.370;2024-01-15T00:02:51;54.05;;;23.73;;
24873;SDS011;12945;42.648;23.370;2024-01-15T00:05:17;50.22;;;23.63;;
24873;SDS011;12945;42.648;23.370;2024-01-15T00:07:42;59.22;;;24.23;;
24873;SDS011;12945;42.648;23.370;2024-01-15T00:10:07;55.92;;;24.63;;
24873;SDS011;12945;42.648;23.370;2024-01-15T00:12:33;49.25;;;22.77;;
24873;SDS011;12945;42.648;23.370;2024-01-15T00:14:58;66.65;;;24.00;;
24873;SDS011;12945;42.648;23.370;2024-01-15T00:17:23;53.70;;;24.10;;
24873;SDS011;12945;42.648;23.370;2024-01-15T00:19:48;56.40;;;23.38;;
24873;SDS011;12945;42.648;23.370;2024-01-15T00:22:14;49.00;;;21.40;;
24873;SDS011;12945;42.648;23.370;2024-01-15T00:24:39;50.20;;;22.60;;
24873;SDS011;12945;42.648;23.370;2024-01-15T00:27:04;50.88;;;22.52;;
24873;SDS011;12945;42.648;23.370;2024-01-15T00:29:29;51.88;;;24.05;;
24873;SDS011;12945;42.648;23.370;2024-01-15T00:31:55;51.25;;;22.63;;
24873;SDS011;12945;42.648;23.370;2024-01-15T00:34:20;54.53;;;24.52;;
24873;SDS011;12945;42.648;23.370;2024-01-15T00:36:45;58.17;;;24.02;;
24873;SDS011;12945;42.648;23.370;2024-01-15T00:39:11;54.45;;;23.45;;
24873;SDS011;12945;42.648;23.370;2024-01-15T00:41:36;52.75;;;24.58;;
24873;SDS011;12945;42.648;23.370;2024-01-15T00:44:02;50.47;;;23.10;;
24873;SDS011;12945;42.648;23.370;2024-01-15T00:46:28;50.65;;;23.35;;
24873;SDS011;12945;42.648;23.370;2024-01-15T00:48:53;53.05;;;23.30;;
24873;SDS011;12945;42.648;23.370;2024-01-15T00:51:18;50.45;;;23.75;;
24873;SDS011;12945;42.648;23.370;2024-01-15T00:53:43;51.30;;;23.52;;
24873;SDS011;12945;42.648;23.370;2024-01-15T00:56:09;53.17;;;23.30;;
24873;SDS011;12945;42.648;23.370;2024-01-15T00:58:34;50.65;;;22.27;;
24873;SDS011;12945;42.648;23.370;2024-01-15T01:00:59;50.90;;;22.90;;
24873;SDS011;12945;42.648;23.370;2024-01-15T01:03:24;55.13;;;23.60;;
24873;SDS011;12945;42.648;23.370;2024-01-15T01:05:50;53.22;;;23.25;;
24873;SDS011;12945;42.648;23.370;2024-01-15T01:08:15;48.65;;;21.90;;
24873;SDS011;12945;42.648;23.370;2024-01-15T01:10:40;50.83;;;23.35;;
24873;SDS011;12945;42.648;23.370;2024-01-15T01:13:08;56.90;;;24.80;;
24873;SDS011;12945;42.648;23.370;2024-01-15T01:15:33;64.15;;;27.48;;
24873;SDS011;12945;42.648;23.370;2024-01-15T01:17:58;60.88;;;26.10;;
24873;SDS011;12945;42.648;23.370;2024-01-15T01:20:23;57.28;;;24.77;;
24873;SDS011;12945;42.648;23.370;2024-01-15T01:22:49;51.85;;;24.42;;
24873;SDS011;12945;42.648;23.370;2024-01-15T01:25:14;55.83;;;24.25;;
24873;SDS011;12945;42.648;23.370;2024-01-15T01:27:40;63.00;;;25.33;;
24873;SDS011;12945;42.648;23.370;2024-01-15T01:30:05;53.03;;;23.63;;
24873;SDS011;12945;42.648;23.370;2024-01-15T01:32:30;51.47;;;23.30;;
24873;SDS011;12945;42.648;23.370;2024-01-15T01:34:56;61.83;;;24.60;;
24873;SDS011;12945;42.648;23.370;2024-01-15T01:37:21;55.35;;;24.08;;
24873;SDS011;12945;42.648;23.370;2024-01-15T01:39:46;55.47;;;24.23;;
24873;SDS011;12945;42.648;23.370;2024-01-15T01:42:12;51.80;;;24.08;;
24873;SDS011;12945;42.648;23.370;2024-01-15T01:44:37;54.67;;;24.95;;
24873;SDS011;12945;42.648;23.370;2024-01-15T01:47:02;51.55;;;23.98;;
24873;SDS011;12945;42.648;23.370;2024-01-15T01:49:28;57.30;;;25.00;;
24873;SDS011;12945;42.648;23.370;2024-01-15T01:51:56;59.33;;;25.10;;
24873;SDS011;12945;42.648;23.370;2024-01-15T01:54:21;54.17;;;24.90;;
24873;SDS011;12945;42.648;23.370;2024-01-15T01:56:47;56.55;;;23.65;;
24873;SDS011;12945;42.648;23.370;2024-01-15T01:59:13;49.42;;;23.85;;
24873;SDS011;12945;42.648;23.370;2024-01-15T02:01:38;49.80;;;23.35;;
24873;SDS011;12945;42.648;23.370;2024-01-15T02:04:04;43.42;;;22.30;;
24873;SDS011;12945;42.648;23.370;2024-01-15T02:06:29;52.05;;;23.23;;
24873;SDS011;12945;42.648;23.370;2024-01-15T02:08:55;49.25;;;23.23;;
24873;SDS011;12945;42.648;23.370;2024-01-15T02:11:20;54.05;;;23.40;;
24873;SDS011;12945;42.648;23.370;2024-01-15T02:13:46;53.30;;;23.88;;
24873;SDS011;12945;42.648;23.370;2024-01-15T02:16:11;50.05;;;23.63;;
24873;SDS011;12945;42.648;23.370;2024-01-15T02:18:40;50.97;;;23.63;;
24873;SDS011;12945;42.648;23.370;2024-01-15T02:21:05;50.10;;;23.17;;
24873;SDS011;12945;42.648;23.370;2024-01-15T02:23:31;47.80;;;21.80;;
24873;SDS011;12945;42.648;23.370;2024-01-15T02:25:56;51.00;;;22.08;;
24873;SDS011;12945;42.648;23.370;2024-01-15T02:28:21;53.35;;;22.90;;
24873;SDS011;12945;42.648;23.370;2024-01-15T02:30:47;49.05;;;22.13;;
24873;SDS011;12945;42.648;23.370;2024-01-15T02:33:12;46.13;;;20.55;;
24873;SDS011;12945;42.648;23.370;2024-01-15T02:35:37;41.35;;;18.25;;
24873;SDS011;12945;42.648;23.370;2024-01-15T02:38:03;48.58;;;20.90;;
24873;SDS011;12945;42.648;23.370;2024-01-15T02:40:28;48.80;;;19.45;;
24873;SDS011;12945;42.648;23.370;2024-01-15T02:42:53;44.38;;;19.83;;
24873;SDS011;12945;42.648;23.370;2024-01-15T02:45:19;44.42;;;18.85;;
24873;SDS011;12945;42.648;23.370;2024-01-15T02:47:44;43.60;;;19.45;;
24873;SDS011;12945;42.648;23.370;2024-01-15T02:50:10;38.97;;;18.67;;
24873;SDS011;12945;42.648;23.370;2024-01-15T02:52:35;44.40;;;19.02;;
24873;SDS011;12945;42.648;23.370;2024-01-15T02:55:00;42.17;;;20.20;;
24873;SDS011;12945;42.648;23.370;2024-01-15T02:57:25;41.55;;;19.52;;
24873;SDS011;12945;42.648;23.370;2024-01-15T02:59:51;45.30;;;17.65;;
24873;SDS011;12945;42.648;23.370;2024-01-15T03:02:16;37.40;;;18.55;;
24873;SDS011;12945;42.648;23.370;2024-01-15T03:04:44;44.80;;;20.05;;
24873;SDS011;12945;42.648;23.370;2024-01-15T03:07:10;49.38;;;21.48;;
24873;SDS011;12945;42.648;23.370;2024-01-15T03:09:35;49.10;;;23.17;;
24873;SDS011;12945;42.648;23.370;2024-01-15T03:12:01;54.60;;;24.20;;
24873;SDS011;12945;42.648;23.370;2024-01-15T03:14:26;53.17;;;24.40;;
24873;SDS011;12945;42.648;23.370;2024-01-15T03:16:52;53.00;;;24.83;;
24873;SDS011;12945;42.648;23.370;2024-01-15T03:19:17;49.53;;;23.40;;
24873;SDS011;12945;42.648;23.370;2024-01-15T03:21:42;56.03;;;24.27;;
24873;SDS011;12945;42.648;23.370;2024-01-15T03:24:07;58.17;;;22.73;;
24873;SDS011;12945;42.648;23.370;2024-01-15T03:26:33;50.70;;;23.13;;
24873;SDS011;12945;42.648;23.370;2024-01-15T03:28:58;52.53;;;24.40;;
24873;SDS011;12945;42.648;23.370;2024-01-15T03:31:23;54.42;;;23.40;;
24873;SDS011;12945;42.648;23.370;2024-01-15T03:33:49;54.53;;;25.00;;
24873;SDS011;12945;42.648;23.370;2024-01-15T03:36:14;59.70;;;24.80;;
24873;SDS011;12945;42.648;23.370;2024-01-15T03:38:40;61.65;;;25.90;;
24873;SDS011;12945;42.648;23.370;2024-01-15T03:41:06;56.08;;;24.25;;
24873;SDS011;12945;42.648;23.370;2024-01-15T03:43:31;59.50;;;25.73;;
24873;SDS011;12945;42.648;23.370;2024-01-15T03:45:57;54.15;;;25.80;;
24873;SDS011;12945;42.648;23.370;2024-01-15T03:48:22;61.92;;;26.83;;
24873;SDS011;12945;42.648;23.370;2024-01-15T03:50:47;56.63;;;24.10;;
24873;SDS011;12945;42.648;23.370;2024-01-15T03:53:12;59.80;;;27.02;;
24873;SDS011;12945;42.648;23.370;2024-01-15T03:55:38;61.92;;;27.63;;
24873;SDS011;12945;42.648;23.370;2024-01-15T03:58:03;65.13;;;28.60;;
24873;SDS011;12945;42.648;23.370;2024-01-15T04:00:28;64.72;;;28.90;;
24873;SDS011;12945;42.648;23.370;2024-01-15T04:02:53;60.50;;;25.90;;
24873;SDS011;12945;42.648;23.370;2024-01-15T04:05:19;61.80;;;28.60;;
24873;SDS011;12945;42.648;23.370;2024-01-15T04:07:44;59.55;;;25.90;;
24873;SDS011;12945;42.648;23.370;2024-01-15T04:10:09;59.72;;;26.92;;
24873;SDS011;12945;42.648;23.370;2024-01-15T04:12:35;67.53;;;29.20;;
24873;SDS011;12945;42.648;23.370;2024-01-15T04:15:00;62.25;;;26.27;;
24873;SDS011;12945;42.648;23.370;2024-01-15T04:17:26;55.45;;;25.92;;
24873;SDS011;12945;42.648;23.370;2024-01-15T04:19:51;54.05;;;25.65;;
24873;SDS011;12945;42.648;23.370;2024-01-15T04:22:16;58.17;;;26.35;;
24873;SDS011;12945;42.648;23.370;2024-01-15T04:24:42;60.33;;;26.83;;
24873;SDS011;12945;42.648;23.370;2024-01-15T04:27:07;57.22;;;26.83;;
24873;SDS011;12945;42.648;23.370;2024-01-15T04:29:33;60.13;;;26.55;;
24873;SDS011;12945;42.648;23.370;2024-01-15T04:31:58;58.70;;;26.50;;
24873;SDS011;12945;42.648;23.370;2024-01-15T04:34:23;58.30;;;27.13;;
24873;SDS011;12945;42.648;23.370;2024-01-15T04:36:48;62.55;;;26.83;;
24873;SDS011;12945;42.648;23.370;2024-01-15T04:39:14;61.38;;;25.58;;
24873;SDS011;12945;42.648;23.370;2024-01-15T04:41:39;55.80;;;25.70;;
24873;SDS011;12945;42.648;23.370;2024-01-15T04:44:04;59.83;;;25.70;;
24873;SDS011;12945;42.648;23.370;2024-01-15T04:46:29;55.97;;;24.73;;
24873;SDS011;12945;42.648;23.370;2024-01-15T04:48:55;55.13;;;24.38;;
24873;SDS011;12945;42.648;23.370;2024-01-15T04:51:20;57.10;;;23.90;;
24873;SDS011;12945;42.648;23.370;2024-01-15T04:53:45;52.38;;;24.13;;
24873;SDS011;12945;42.648;23.370;2024-01-15T04:56:11;53.10;;;23.08;;
24873;SDS011;12945;42.648;23.370;2024-01-15T04:58:36;57.67;;;24.83;;
24873;SDS011;12945;42.648;23.370;2024-01-15T05:01:01;50.50;;;22.77;;
24873;SDS011;12945;42.648;23.370;2024-01-15T05:03:26;49.45;;;22.38;;
24873;SDS011;12945;42.648;23.370;2024-01-15T05:05:52;59.92;;;25.23;;
24873;SDS011;12945;42.648;23.370;2024-01-15T05:08:17;53.17;;;23.20;;
24873;SDS011;12945;42.648;23.370;2024-01-15T05:10:42;54.22;;;24.70;;
24873;SDS011;12945;42.648;23.370;2024-01-15T05:13:07;56.13;;;24.55;;
24873;SDS011;12945;42.648;23.370;2024-01-15T05:15:33;50.70;;;23.83;;
24873;SDS011;12945;42.648;23.370;2024-01-15T05:17:58;59.95;;;24.00;;
24873;SDS011;12945;42.648;23.370;2024-01-15T05:20:23;55.22;;;24.33;;
24873;SDS011;12945;42.648;23.370;2024-01-15T05:22:48;62.20;;;25.88;;
24873;SDS011;12945;42.648;23.370;2024-01-15T05:25:14;55.17;;;25.45;;
24873;SDS011;12945;42.648;23.370;2024-01-15T05:27:39;57.28;;;25.42;;
24873;SDS011;12945;42.648;23.370;2024-01-15T05:30:05;53.33;;;24.02;;
24873;SDS011;12945;42.648;23.370;2024-01-15T05:32:30;54.35;;;24.75;;
24873;SDS011;12945;42.648;23.370;2024-01-15T05:34:55;61.08;;;27.77;;
24873;SDS011;12945;42.648;23.370;2024-01-15T05:37:21;61.65;;;28.27;;
24873;SDS011;12945;42.648;23.370;2024-01-15T05:39:46;73.30;;;30.98;;
24873;SDS011;12945;42.648;23.370;2024-01-15T05:42:11;75.32;;;31.83;;
24873;SDS011;12945;42.648;23.370;2024-01-15T05:44:36;71.43;;;32.33;;
24873;SDS011;12945;42.648;23.370;2024-01-15T05:47:02;74.38;;;33.67;;
24873;SDS011;12945;42.648;23.370;2024-01-15T05:49:29;71.35;;;32.33;;
24873;SDS011;12945;42.648;23.370;2024-01-15T05:51:54;71.38;;;32.53;;
24873;SDS011;12945;42.648;23.370;2024-01-15T05:54:19;75.35;;;31.10;;
24873;SDS011;12945;42.648;23.370;2024-01-15T05:56:45;73.07;;;31.92;;
24873;SDS011;12945;42.648;23.370;2024-01-15T05:59:10;75.40;;;32.40;;
24873;SDS011;12945;42.648;23.370;2024-01-15T06:01:35;74.55;;;32.75;;
24873;SDS011;12945;42.648;23.370;2024-01-15T06:04:00;68.45;;;30.73;;
24873;SDS011;12945;42.648;23.370;2024-01-15T06:06:26;74.97;;;32.88;;
24873;SDS011;12945;42.648;23.370;2024-01-15T06:08:51;70.65;;;31.77;;
24873;SDS011;12945;42.648;23.370;2024-01-15T06:11:16;77.10;;;33.03;;
24873;SDS011;12945;42.648;23.370;2024-01-15T06:13:41;74.25;;;34.45;;
24873;SDS011;12945;42.648;23.370;2024-01-15T06:16:13;75.95;;;33.33;;
24873;SDS011;12945;42.648;23.370;2024-01-15T06:18:40;73.25;;;34.28;;
24873;SDS011;12945;42.648;23.370;2024-01-15T06:21:05;79.10;;;35.28;;
24873;SDS011;12945;42.648;23.370;2024-01-15T06:23:30;76.85;;;34.40;;
24873;SDS011;12945;42.648;23.370;2024-01-15T06:25:55;78.22;;;36.13;;
24873;SDS011;12945;42.648;23.370;2024-01-15T06:28:21;78.07;;;33.28;;
24873;SDS011;12945;42.648;23.370;2024-01-15T06:30:46;82.18;;;35.15;;
24873;SDS011;12945;42.648;23.370;2024-01-15T06:33:11;84.47;;;35.13;;
24873;SDS011;12945;42.648;23.370;2024-01-15T06:35:36;77.85;;;35.38;;
24873;SDS011;12945;42.648;23.370;2024-01-15T06:38:02;89.32;;;36.47;;
24873;SDS011;12945;42.648;23.370;2024-01-15T06:40:27;79.45;;;36.17;;
24873;SDS011;12945;42.648;23.370;2024-01-15T06:42:52;79.40;;;34.58;;
24873;SDS011;12945;42.648;23.370;2024-01-15T06:45:17;90.28;;;35.53;;
24873;SDS011;12945;42.648;23.370;2024-01-15T06:47:43;83.40;;;36.95;;
24873;SDS011;12945;42.648;23.370;2024-01-15T06:50:08;76.18;;;35.60;;
24873;SDS011;12945;42.648;23.370;2024-01-15T06:52:33;83.32;;;36.72;;
24873;SDS011;12945;42.648;23.370;2024-01-15T06:54:58;79.25;;;36.83;;
24873;SDS011;12945;42.648;23.370;2024-01-15T06:57:24;77.20;;;34.42;;
24873;SDS011;12945;42.648;23.370;2024-01-15T06:59:49;83.28;;;34.75;;
24873;SDS011;12945;42.648;23.370;2024-01-15T07:02:14;78.28;;;34.90;;
24873;SDS011;12945;42.648;23.370;2024-01-15T07:04:40;82.78;;;37.03;;
24873;SDS011;12945;42.648;23.370;2024-01-15T07:07:05;90.10;;;40.90;;
24873;SDS011;12945;42.648;23.370;2024-01-15T07:09:30;87.80;;;39.92;;
24873;SDS011;12945;42.648;23.370;2024-01-15T07:11:55;87.72;;;39.83;;
24873;SDS011;12945;42.648;23.370;2024-01-15T07:14:22;89.43;;;42.15;;
24873;SDS011;12945;42.648;23.370;2024-01-15T07:16:48;97.28;;;42.83;;
24873;SDS011;12945;42.648;23.370;2024-01-15T07:19:13;94.80;;;44.83;;
24873;SDS011;12945;42.648;23.370;2024-01-15T07:21:38;102.88;;;44.83;;
24873;SDS011;12945;42.648;23.370;2024-01-15T07:24:05;97.35;;;44.25;;
24873;SDS011;12945;42.648;23.370;2024-01-15T07:26:30;96.93;;;43.75;;
24873;SDS011;12945;42.648;23.370;2024-01-15T07:28:56;94.97;;;44.83;;
24873;SDS011;12945;42.648;23.370;2024-01-15T07:31:21;93.47;;;44.30;;
24873;SDS011;12945;42.648;23.370;2024-01-15T07:33:47;87.57;;;42.72;;
24873;SDS011;12945;42.648;23.370;2024-01-15T07:36:12;102.18;;;44.97;;
24873;SDS011;12945;42.648;23.370;2024-01-15T07:38:37;101.60;;;46.60;;
24873;SDS011;12945;42.648;23.370;2024-01-15T07:41:03;83.93;;;39.88;;
24873;SDS011;12945;42.648;23.370;2024-01-15T07:43:28;92.72;;;42.22;;
24873;SDS011;12945;42.648;23.370;2024-01-15T07:45:54;91.28;;;41.35;;
24873;SDS011;12945;42.648;23.370;2024-01-15T07:48:19;89.40;;;39.25;;
24873;SDS011;12945;42.648;23.370;2024-01-15T07:50:45;85.60;;;39.80;;
24873;SDS011;12945;42.648;23.370;2024-01-15T07:53:10;86.30;;;38.70;;
24873;SDS011;12945;42.648;23.370;2024-01-15T07:55:36;91.28;;;37.88;;
24873;SDS011;12945;42.648;23.370;2024-01-15T07:58:01;71.95;;;32.03;;
24873;SDS011;12945;42.648;23.370;2024-01-15T08:00:27;78.85;;;36.03;;
24873;SDS011;12945;42.648;23.370;2024-01-15T08:02:52;77.85;;;34.70;;
24873;SDS011;12945;42.648;23.370;2024-01-15T08:05:18;62.13;;;26.38;;
24873;SDS011;12945;42.648;23.370;2024-01-15T08:07:43;73.20;;;30.23;;
24873;SDS011;12945;42.648;23.370;2024-01-15T08:10:08;55.00;;;26.48;;
24873;SDS011;12945;42.648;23.370;2024-01-15T08:12:34;62.65;;;26.95;;
24873;SDS011;12945;42.648;23.370;2024-01-15T08:14:59;58.85;;;26.58;;
24873;SDS011;12945;42.648;23.370;2024-01-15T08:17:24;51.83;;;22.52;;
24873;SDS011;12945;42.648;23.370;2024-01-15T08:19:53;55.10;;;24.27;;
24873;SDS011;12945;42.648;23.370;2024-01-15T08:22:18;48.78;;;21.92;;
24873;SDS011;12945;42.648;23.370;2024-01-15T08:24:44;47.08;;;21.10;;
24873;SDS011;12945;42.648;23.370;2024-01-15T08:27:09;40.80;;;17.75;;
24873;SDS011;12945;42.648;23.370;2024-01-15T08:29:34;42.40;;;19.35;;
24873;SDS011;12945;42.648;23.370;2024-01-15T08:32:00;71.22;;;33.97;;
24873;SDS011;12945;42.648;23.370;2024-01-15T08:34:25;68.13;;;29.33;;
24873;SDS011;12945;42.648;23.370;2024-01-15T08:36:50;65.82;;;29.27;;
24873;SDS011;12945;42.648;23.370;2024-01-15T08:39:16;65.57;;;31.30;;
24873;SDS011;12945;42.648;23.370;2024-01-15T08:41:42;73.72;;;31.88;;
24873;SDS011;12945;42.648;23.370;2024-01-15T08:44:07;64.82;;;29.02;;
24873;SDS011;12945;42.648;23.370;2024-01-15T08:46:32;65.68;;;31.95;;
24873;SDS011;12945;42.648;23.370;2024-01-15T08:48:58;61.30;;;30.30;;
24873;SDS011;12945;42.648;23.370;2024-01-15T08:51:23;77.18;;;35.60;;
24873;SDS011;12945;42.648;23.370;2024-01-15T08:53:48;67.15;;;32.95;;
24873;SDS011;12945;42.648;23.370;2024-01-15T08:56:13;60.75;;;27.48;;
24873;SDS011;12945;42.648;23.370;2024-01-15T08:58:39;74.10;;;34.05;;
24873;SDS011;12945;42.648;23.370;2024-01-15T09:01:04;72.47;;;33.80;;
24873;SDS011;12945;42.648;23.370;2024-01-15T09:03:30;62.75;;;27.70;;
24873;SDS011;12945;42.648;23.370;2024-01-15T09:05:55;50.28;;;25.45;;
24873;SDS011;12945;42.648;23.370;2024-01-15T09:08:20;48.75;;;24.45;;
24873;SDS011;12945;42.648;23.370;2024-01-15T09:10:45;47.88;;;24.27;;
24873;SDS011;12945;42.648;23.370;2024-01-15T09:13:11;52.47;;;25.90;;
24873;SDS011;12945;42.648;23.370;2024-01-15T09:15:36;55.67;;;25.67;;
24873;SDS011;12945;42.648;23.370;2024-01-15T09:18:02;59.03;;;27.33;;
24873;SDS011;12945;42.648;23.370;2024-01-15T09:20:27;56.58;;;26.48;;
24873;SDS011;12945;42.648;23.370;2024-01-15T09:22:53;60.30;;;27.23;;
24873;SDS011;12945;42.648;23.370;2024-01-15T09:25:18;58.08;;;26.88;;
24873;SDS011;12945;42.648;23.370;2024-01-15T09:27:44;54.92;;;26.85;;
24873;SDS011;12945;42.648;23.370;2024-01-15T09:30:09;54.83;;;26.40;;
24873;SDS011;12945;42.648;23.370;2024-01-15T09:32:36;59.60;;;27.55;;
24873;SDS011;12945;42.648;23.370;2024-01-15T09:35:01;88.05;;;39.13;;
24873;SDS011;12945;42.648;23.370;2024-01-15T09:37:26;110.88;;;49.50;;
24873;SDS011;12945;42.648;23.370;2024-01-15T09:39:51;115.60;;;55.85;;
24873;SDS011;12945;42.648;23.370;2024-01-15T09:42:17;119.78;;;54.53;;
24873;SDS011;12945;42.648;23.370;2024-01-15T09:44:42;113.70;;;53.45;;
24873;SDS011;12945;42.648;23.370;2024-01-15T09:47:08;119.60;;;53.97;;
24873;SDS011;12945;42.648;23.370;2024-01-15T09:49:34;102.47;;;50.22;;
24873;SDS011;12945;42.648;23.370;2024-01-15T09:51:59;107.32;;;51.50;;
24873;SDS011;12945;42.648;23.370;2024-01-15T09:54:25;100.40;;;48.95;;
24873;SDS011;12945;42.648;23.370;2024-01-15T09:56:50;110.32;;;49.03;;
24873;SDS011;12945;42.648;23.370;2024-01-15T09:59:16;91.40;;;44.55;;
24873;SDS011;12945;42.648;23.370;2024-01-15T10:01:42;89.30;;;40.50;;
24873;SDS011;12945;42.648;23.370;2024-01-15T10:04:09;74.60;;;37.85;;
24873;SDS011;12945;42.648;23.370;2024-01-15T10:06:34;76.38;;;34.78;;
24873;SDS011;12945;42.648;23.370;2024-01-15T10:09:00;81.43;;;33.92;;
24873;SDS011;12945;42.648;23.370;2024-01-15T10:11:25;76.88;;;35.10;;
24873;SDS011;12945;42.648;23.370;2024-01-15T10:13:51;75.93;;;32.67;;
24873;SDS011;12945;42.648;23.370;2024-01-15T10:16:18;64.95;;;28.40;;
24873;SDS011;12945;42.648;23.370;2024-01-15T10:18:44;55.72;;;26.08;;
24873;SDS011;12945;42.648;23.370;2024-01-15T10:21:09;69.90;;;27.23;;
24873;SDS011;12945;42.648;23.370;2024-01-15T10:23:34;56.88;;;26.98;;
24873;SDS011;12945;42.648;23.370;2024-01-15T10:26:01;63.85;;;28.48;;
24873;SDS011;12945;42.648;23.370;2024-01-15T10:28:27;52.47;;;26.67;;
24873;SDS011;12945;42.648;23.370;2024-01-15T10:30:55;63.00;;;28.13;;
24873;SDS011;12945;42.648;23.370;2024-01-15T10:33:24;71.60;;;28.48;;
24873;SDS011;12945;42.648;23.370;2024-01-15T10:35:51;58.25;;;28.52;;
24873;SDS011;12945;42.648;23.370;2024-01-15T10:38:18;59.22;;;25.65;;
24873;SDS011;12945;42.648;23.370;2024-01-15T10:40:47;58.92;;;26.20;;
24873;SDS011;12945;42.648;23.370;2024-01-15T10:43:12;54.55;;;26.08;;
24873;SDS011;12945;42.648;23.370;2024-01-15T10:45:37;61.25;;;28.05;;
24873;SDS011;12945;42.648;23.370;2024-01-15T10:48:03;60.70;;;27.25;;
24873;SDS011;12945;42.648;23.370;2024-01-15T10:50:28;60.95;;;28.60;;
24873;SDS011;12945;42.648;23.370;2024-01-15T10:52:54;67.05;;;29.10;;
24873;SDS011;12945;42.648;23.370;2024-01-15T10:55:20;48.42;;;25.00;;
24873;SDS011;12945;42.648;23.370;2024-01-15T10:57:46;48.67;;;24.40;;
24873;SDS011;12945;42.648;23.370;2024-01-15T11:00:13;46.88;;;23.27;;
24873;SDS011;12945;42.648;23.370;2024-01-15T11:02:41;50.58;;;23.58;;
24873;SDS011;12945;42.648;23.370;2024-01-15T11:05:07;49.40;;;23.08;;
24873;SDS011;12945;42.648;23.370;2024-01-15T11:07:32;53.58;;;24.70;;
24873;SDS011;12945;42.648;23.370;2024-01-15T11:09:57;50.35;;;24.27;;
24873;SDS011;12945;42.648;23.370;2024-01-15T11:12:24;51.03;;;24.55;;
24873;SDS011;12945;42.648;23.370;2024-01-15T11:14:49;49.53;;;24.35;;
24873;SDS011;12945;42.648;23.370;2024-01-15T11:17:15;52.97;;;24.45;;
24873;SDS011;12945;42.648;23.370;2024-01-15T11:22:08;56.17;;;27.15;;
24873;SDS011;12945;42.648;23.370;2024-01-15T11:27:00;60.67;;;29.55;;
24873;SDS011;12945;42.648;23.370;2024-01-15T11:29:29;74.97;;;33.42;;
24873;SDS011;12945;42.648;23.370;2024-01-15T11:34:21;66.22;;;31.15;;
24873;SDS011;12945;42.648;23.370;2024-01-15T11:41:53;69.30;;;28.88;;
24873;SDS011;12945;42.648;23.370;2024-01-15T11:44:19;64.18;;;30.70;;
24873;SDS011;12945;42.648;23.370;2024-01-15T11:46:46;65.00;;;31.90;;
24873;SDS011;12945;42.648;23.370;2024-01-15T11:49:21;72.50;;;30.85;;
24873;SDS011;12945;42.648;23.370;2024-01-15T11:51:51;74.13;;;30.77;;
24873;SDS011;12945;42.648;23.370;2024-01-15T11:54:17;62.13;;;29.25;;
24873;SDS011;12945;42.648;23.370;2024-01-15T11:56:43;59.60;;;28.60;;
24873;SDS011;12945;42.648;23.370;2024-01-15T11:59:08;61.10;;;30.05;;
24873;SDS011;12945;42.648;23.370;2024-01-15T12:01:33;57.90;;;29.08;;
24873;SDS011;12945;42.648;23.370;2024-01-15T12:03:59;66.43;;;28.80;;
24873;SDS011;12945;42.648;23.370;2024-01-15T12:06:24;57.15;;;29.05;;
24873;SDS011;12945;42.648;23.370;2024-01-15T12:08:50;68.40;;;30.98;;
24873;SDS011;12945;42.648;23.370;2024-01-15T12:11:15;65.20;;;30.83;;
24873;SDS011;12945;42.648;23.370;2024-01-15T12:13:42;63.47;;;30.00;;
24873;SDS011;12945;42.648;23.370;2024-01-15T12:16:07;63.63;;;29.33;;
24873;SDS011;12945;42.648;23.370;2024-01-15T12:18:32;59.58;;;29.00;;
24873;SDS011;12945;42.648;23.370;2024-01-15T12:20:58;64.13;;;31.40;;
24873;SDS011;12945;42.648;23.370;2024-01-15T12:23:24;62.33;;;30.50;;
24873;SDS011;12945;42.648;23.370;2024-01-15T12:25:49;74.35;;;31.52;;
24873;SDS011;12945;42.648;23.370;2024-01-15T12:28:15;60.70;;;31.08;;
24873;SDS011;12945;42.648;23.370;2024-01-15T12:30:40;57.65;;;29.75;;
24873;SDS011;12945;42.648;23.370;2024-01-15T12:33:06;66.78;;;31.45;;
24873;SDS011;12945;42.648;23.370;2024-01-15T12:35:31;68.95;;;31.13;;
24873;SDS011;12945;42.648;23.370;2024-01-15T12:37:59;62.08;;;29.02;;
24873;SDS011;12945;42.648;23.370;2024-01-15T12:40:25;70.72;;;28.75;;
24873;SDS011;12945;42.648;23.370;2024-01-15T12:42:50;56.88;;;27.50;;
24873;SDS011;12945;42.648;23.370;2024-01-15T12:45:16;60.47;;;28.63;;
24873;SDS011;12945;42.648;23.370;2024-01-15T12:47:42;58.72;;;27.08;;
24873;SDS011;12945;42.648;23.370;2024-01-15T12:50:10;51.78;;;26.88;;
24873;SDS011;12945;42.648;23.370;2024-01-15T12:52:37;54.58;;;27.45;;
24873;SDS011;12945;42.648;23.370;2024-01-15T12:55:05;52.42;;;25.40;;
24873;SDS011;12945;42.648;23.370;2024-01-15T12:57:31;58.60;;;28.65;;
24873;SDS011;12945;42.648;23.370;2024-01-15T12:59:56;66.85;;;28.52;;
24873;SDS011;12945;42.648;23.370;2024-01-15T13:02:21;58.40;;;27.40;;
24873;SDS011;12945;42.648;23.370;2024-01-15T13:04:46;60.10;;;26.60;;
24873;SDS011;12945;42.648;23.370;2024-01-15T13:07:12;56.65;;;26.65;;
24873;SDS011;12945;42.648;23.370;2024-01-15T13:09:38;55.13;;;29.23;;
24873;SDS011;12945;42.648;23.370;2024-01-15T13:12:03;62.20;;;27.30;;
24873;SDS011;12945;42.648;23.370;2024-01-15T13:14:28;54.75;;;27.55;;
24873;SDS011;12945;42.648;23.370;2024-01-15T13:16:54;67.32;;;27.90;;
24873;SDS011;12945;42.648;23.370;2024-01-15T13:19:19;53.92;;;26.15;;
24873;SDS011;12945;42.648;23.370;2024-01-15T13:21:46;64.72;;;26.40;;
24873;SDS011;12945;42.648;23.370;2024-01-15T13:24:11;57.83;;;25.88;;
24873;SDS011;12945;42.648;23.370;2024-01-15T13:26:37;58.92;;;26.65;;
24873;SDS011;12945;42.648;23.370;2024-01-15T13:29:02;67.03;;;26.25;;
24873;SDS011;12945;42.648;23.370;2024-01-15T13:31:29;55.47;;;26.98;;
24873;SDS011;12945;42.648;23.370;2024-01-15T13:33:54;49.85;;;25.58;;
24873;SDS011;12945;42.648;23.370;2024-01-15T13:36:20;58.35;;;25.83;;
24873;SDS011;12945;42.648;23.370;2024-01-15T13:38:46;55.53;;;26.90;;
24873;SDS011;12945;42.648;23.370;2024-01-15T13:41:11;60.63;;;27.88;;
24873;SDS011;12945;42.648;23.370;2024-01-15T13:43:37;61.00;;;27.33;;
24873;SDS011;12945;42.648;23.370;2024-01-15T13:46:02;60.83;;;29.38;;
24873;SDS011;12945;42.648;23.370;2024-01-15T13:48:30;67.70;;;29.08;;
24873;SDS011;12945;42.648;23.370;2024-01-15T13:50:56;68.63;;;29.60;;
24873;SDS011;12945;42.648;23.370;2024-01-15T13:53:22;62.78;;;29.13;;
24873;SDS011;12945;42.648;23.370;2024-01-15T13:55:47;63.63;;;28.20;;
24873;SDS011;12945;42.648;23.370;2024-01-15T13:58:12;67.78;;;29.60;;
24873;SDS011;12945;42.648;23.370;2024-01-15T14:00:38;57.67;;;26.00;;
24873;SDS011;12945;42.648;23.370;2024-01-15T14:03:04;60.25;;;28.55;;
24873;SDS011;12945;42.648;23.370;2024-01-15T14:05:30;68.45;;;27.33;;
24873;SDS011;12945;42.648;23.370;2024-01-15T14:07:55;58.67;;;28.00;;
24873;SDS011;12945;42.648;23.370;2024-01-15T14:10:20;56.55;;;26.75;;